sensor_id;sensor_type;location;lat;lon;timestamp;P1;durP1;ratioP1;P2;durP2;ratioP2
5333;SDS011;2689;50.954;7.116;2022-08-01T00:01:32;3.70;;;2.30;;
5333;SDS011;2689;50.954;7.116;2022-08-01T00:03:59;3.60;;;3.00;;
5333;SDS011;2689;50.954;7.116;2022-08-01T00:06:26;3.60;;;2.80;;
5333;SDS011;2689;50.954;7.116;2022-08-01T00:08:53;3.20;;;2.20;;
5333;SDS011;2689;50.954;7.116;2022-08-01T00:11:19;3.63;;;2.20;;
5333;SDS011;2689;50.954;7.116;2022-08-01T00:13:46;3.53;;;1.90;;
5333;SDS011;2689;50.954;7.116;2022-08-01T00:16:13;3.10;;;2.20;;
5333;SDS011;2689;50.954;7.116;2022-08-01T00:18:42;3.40;;;1.77;;
5333;SDS011;2689;50.954;7.116;2022-08-01T00:21:08;3.07;;;1.73;;
5333;SDS011;2689;50.954;7.116;2022-08-01T00:23:35;3.20;;;1.87;;
5333;SDS011;2689;50.954;7.116;2022-08-01T00:26:02;4.30;;;2.33;;
5333;SDS011;2689;50.954;7.116;2022-08-01T00:28:29;2.57;;;2.03;;
5333;SDS011;2689;50.954;7.116;2022-08-01T00:30:55;3.40;;;1.70;;
5333;SDS011;2689;50.954;7.116;2022-08-01T00:33:22;2.67;;;2.10;;
5333;SDS011;2689;50.954;7.116;2022-08-01T00:35:50;5.80;;;2.00;;
5333;SDS011;2689;50.954;7.116;2022-08-01T00:38:17;4.60;;;2.10;;
5333;SDS011;2689;50.954;7.116;2022-08-01T00:40:44;2.40;;;2.07;;
5333;SDS011;2689;50.954;7.116;2022-08-01T00:43:10;4.80;;;2.60;;
5333;SDS011;2689;50.954;7.116;2022-08-01T00:45:37;4.30;;;2.40;;
5333;SDS011;2689;50.954;7.116;2022-08-01T00:48:04;3.77;;;2.40;;
5333;SDS011;2689;50.954;7.116;2022-08-01T00:50:31;6.00;;;2.30;;
5333;SDS011;2689;50.954;7.116;2022-08-01T00:53:00;3.63;;;2.70;;
5333;SDS011;2689;50.954;7.116;2022-08-01T00:55:27;5.10;;;2.77;;
5333;SDS011;2689;50.954;7.116;2022-08-01T00:57:55;3.40;;;2.60;;
5333;SDS011;2689;50.954;7.116;2022-08-01T01:00:22;4.27;;;2.63;;
5333;SDS011;2689;50.954;7.116;2022-08-01T01:02:49;5.00;;;2.57;;
5333;SDS011;2689;50.954;7.116;2022-08-01T01:05:16;5.43;;;2.43;;
5333;SDS011;2689;50.954;7.116;2022-08-01T01:07:44;7.00;;;2.23;;
5333;SDS011;2689;50.954;7.116;2022-08-01T01:10:22;4.30;;;2.43;;
5333;SDS011;2689;50.954;7.116;2022-08-01T01:12:59;3.80;;;2.60;;
5333;SDS011;2689;50.954;7.116;2022-08-01T01:15:30;4.27;;;3.00;;
5333;SDS011;2689;50.954;7.116;2022-08-01T01:18:02;4.83;;;2.93;;
5333;SDS011;2689;50.954;7.116;2022-08-01T01:20:34;4.20;;;2.90;;
5333;SDS011;2689;50.954;7.116;2022-08-01T01:23:12;4.50;;;2.60;;
5333;SDS011;2689;50.954;7.116;2022-08-01T01:26:13;4.57;;;2.53;;
5333;SDS011;2689;50.954;7.116;2022-08-01T01:28:56;4.70;;;2.73;;
5333;SDS011;2689;50.954;7.116;2022-08-01T01:31:27;4.73;;;2.63;;
5333;SDS011;2689;50.954;7.116;2022-08-01T01:33:56;4.80;;;3.07;;
5333;SDS011;2689;50.954;7.116;2022-08-01T01:36:25;6.83;;;2.43;;
5333;SDS011;2689;50.954;7.116;2022-08-01T01:38:54;2.90;;;2.60;;
5333;SDS011;2689;50.954;7.116;2022-08-01T01:41:22;7.20;;;3.10;;
5333;SDS011;2689;50.954;7.116;2022-08-01T01:43:50;3.70;;;2.93;;
5333;SDS011;2689;50.954;7.116;2022-08-01T01:46:20;4.53;;;3.50;;
5333;SDS011;2689;50.954;7.116;2022-08-01T01:48:53;4.20;;;3.30;;
5333;SDS011;2689;50.954;7.116;2022-08-01T01:51:21;5.93;;;3.63;;
5333;SDS011;2689;50.954;7.116;2022-08-01T01:53:50;7.47;;;4.23;;
5333;SDS011;2689;50.954;7.116;2022-08-01T01:56:19;5.17;;;4.30;;
5333;SDS011;2689;50.954;7.116;2022-08-01T01:58:47;6.37;;;4.20;;
5333;SDS011;2689;50.954;7.116;2022-08-01T02:01:16;5.53;;;4.07;;
5333;SDS011;2689;50.954;7.116;2022-08-01T02:03:46;4.70;;;4.00;;
5333;SDS011;2689;50.954;7.116;2022-08-01T02:06:14;5.23;;;4.00;;
5333;SDS011;2689;50.954;7.116;2022-08-01T02:08:42;4.97;;;4.10;;
5333;SDS011;2689;50.954;7.116;2022-08-01T02:11:11;5.53;;;3.97;;
5333;SDS011;2689;50.954;7.116;2022-08-01T02:13:48;7.00;;;4.20;;
5333;SDS011;2689;50.954;7.116;2022-08-01T02:16:23;6.20;;;3.40;;
5333;SDS011;2689;50.954;7.116;2022-08-01T02:18:52;6.53;;;4.30;;
5333;SDS011;2689;50.954;7.116;2022-08-01T02:21:20;6.23;;;3.87;;
5333;SDS011;2689;50.954;7.116;2022-08-01T02:23:52;7.50;;;4.33;;
5333;SDS011;2689;50.954;7.116;2022-08-01T02:26:21;4.60;;;4.20;;
5333;SDS011;2689;50.954;7.116;2022-08-01T02:28:50;10.60;;;4.33;;
5333;SDS011;2689;50.954;7.116;2022-08-01T02:31:23;4.60;;;3.87;;
5333;SDS011;2689;50.954;7.116;2022-08-01T02:33:53;4.80;;;3.60;;
5333;SDS011;2689;50.954;7.116;2022-08-01T02:36:23;7.00;;;4.03;;
5333;SDS011;2689;50.954;7.116;2022-08-01T02:38:52;5.23;;;4.00;;
5333;SDS011;2689;50.954;7.116;2022-08-01T02:41:21;5.07;;;4.33;;
5333;SDS011;2689;50.954;7.116;2022-08-01T02:43:49;6.47;;;4.60;;
5333;SDS011;2689;50.954;7.116;2022-08-01T02:46:21;5.43;;;4.40;;
5333;SDS011;2689;50.954;7.116;2022-08-01T02:48:54;4.70;;;3.70;;
5333;SDS011;2689;50.954;7.116;2022-08-01T02:51:24;4.60;;;4.20;;
5333;SDS011;2689;50.954;7.116;2022-08-01T02:53:52;4.83;;;3.73;;
5333;SDS011;2689;50.954;7.116;2022-08-01T02:56:20;4.70;;;4.20;;
5333;SDS011;2689;50.954;7.116;2022-08-01T02:58:49;7.67;;;3.90;;
5333;SDS011;2689;50.954;7.116;2022-08-01T03:01:17;6.70;;;3.80;;
5333;SDS011;2689;50.954;7.116;2022-08-01T03:03:47;7.77;;;4.47;;
5333;SDS011;2689;50.954;7.116;2022-08-01T03:06:14;7.53;;;4.17;;
5333;SDS011;2689;50.954;7.116;2022-08-01T03:08:41;5.00;;;3.87;;
5333;SDS011;2689;50.954;7.116;2022-08-01T03:11:08;5.53;;;3.90;;
5333;SDS011;2689;50.954;7.116;2022-08-01T03:13:37;5.30;;;4.10;;
5333;SDS011;2689;50.954;7.116;2022-08-01T03:16:06;5.10;;;3.80;;
5333;SDS011;2689;50.954;7.116;2022-08-01T03:18:34;6.43;;;4.07;;
5333;SDS011;2689;50.954;7.116;2022-08-01T03:21:03;4.60;;;4.10;;
5333;SDS011;2689;50.954;7.116;2022-08-01T03:23:31;5.83;;;4.40;;
5333;SDS011;2689;50.954;7.116;2022-08-01T03:25:59;9.97;;;4.80;;
5333;SDS011;2689;50.954;7.116;2022-08-01T03:28:28;5.63;;;4.17;;
5333;SDS011;2689;50.954;7.116;2022-08-01T03:30:56;10.13;;;5.30;;
5333;SDS011;2689;50.954;7.116;2022-08-01T03:33:24;7.57;;;4.50;;
5333;SDS011;2689;50.954;7.116;2022-08-01T03:35:52;6.00;;;5.10;;
5333;SDS011;2689;50.954;7.116;2022-08-01T03:38:23;7.23;;;4.83;;
5333;SDS011;2689;50.954;7.116;2022-08-01T03:40:52;6.77;;;4.57;;
5333;SDS011;2689;50.954;7.116;2022-08-01T03:43:22;7.87;;;5.40;;
5333;SDS011;2689;50.954;7.116;2022-08-01T03:45:56;8.10;;;5.03;;
5333;SDS011;2689;50.954;7.116;2022-08-01T03:48:29;10.73;;;5.40;;
5333;SDS011;2689;50.954;7.116;2022-08-01T03:51:01;6.77;;;5.70;;
5333;SDS011;2689;50.954;7.116;2022-08-01T03:53:30;7.93;;;5.90;;
5333;SDS011;2689;50.954;7.116;2022-08-01T03:55:59;7.53;;;5.17;;
5333;SDS011;2689;50.954;7.116;2022-08-01T03:58:28;6.80;;;5.20;;
5333;SDS011;2689;50.954;7.116;2022-08-01T04:00:55;7.27;;;6.00;;
5333;SDS011;2689;50.954;7.116;2022-08-01T04:03:23;6.47;;;5.60;;
5333;SDS011;2689;50.954;7.116;2022-08-01T04:05:50;9.53;;;5.77;;
5333;SDS011;2689;50.954;7.116;2022-08-01T04:08:17;7.27;;;5.20;;
5333;SDS011;2689;50.954;7.116;2022-08-01T04:10:45;7.20;;;5.20;;
5333;SDS011;2689;50.954;7.116;2022-08-01T04:13:11;7.90;;;5.57;;
5333;SDS011;2689;50.954;7.116;2022-08-01T04:15:38;8.03;;;5.40;;
5333;SDS011;2689;50.954;7.116;2022-08-01T04:18:05;7.30;;;5.47;;
5333;SDS011;2689;50.954;7.116;2022-08-01T04:20:32;11.83;;;6.23;;
5333;SDS011;2689;50.954;7.116;2022-08-01T04:22:59;6.80;;;5.27;;
5333;SDS011;2689;50.954;7.116;2022-08-01T04:25:26;10.03;;;5.83;;
5333;SDS011;2689;50.954;7.116;2022-08-01T04:28:00;8.03;;;6.77;;
5333;SDS011;2689;50.954;7.116;2022-08-01T04:30:31;7.70;;;6.07;;
5333;SDS011;2689;50.954;7.116;2022-08-01T04:33:00;7.10;;;5.60;;
5333;SDS011;2689;50.954;7.116;2022-08-01T04:35:29;8.27;;;6.07;;
5333;SDS011;2689;50.954;7.116;2022-08-01T04:37:58;7.20;;;5.77;;
5333;SDS011;2689;50.954;7.116;2022-08-01T04:40:27;8.33;;;5.63;;
5333;SDS011;2689;50.954;7.116;2022-08-01T04:42:55;10.40;;;5.47;;
5333;SDS011;2689;50.954;7.116;2022-08-01T04:45:23;11.43;;;5.47;;
5333;SDS011;2689;50.954;7.116;2022-08-01T04:47:51;13.73;;;7.13;;
5333;SDS011;2689;50.954;7.116;2022-08-01T04:50:18;9.10;;;6.37;;
5333;SDS011;2689;50.954;7.116;2022-08-01T04:52:46;9.93;;;6.70;;
5333;SDS011;2689;50.954;7.116;2022-08-01T04:55:13;10.80;;;6.00;;
5333;SDS011;2689;50.954;7.116;2022-08-01T04:57:43;11.87;;;7.00;;
5333;SDS011;2689;50.954;7.116;2022-08-01T05:00:11;7.50;;;5.90;;
5333;SDS011;2689;50.954;7.116;2022-08-01T05:02:40;9.17;;;6.60;;
5333;SDS011;2689;50.954;7.116;2022-08-01T05:05:07;8.00;;;7.17;;
5333;SDS011;2689;50.954;7.116;2022-08-01T05:07:35;9.90;;;7.20;;
5333;SDS011;2689;50.954;7.116;2022-08-01T05:10:02;10.47;;;7.03;;
5333;SDS011;2689;50.954;7.116;2022-08-01T05:12:29;8.57;;;6.90;;
5333;SDS011;2689;50.954;7.116;2022-08-01T05:14:57;11.17;;;7.50;;
5333;SDS011;2689;50.954;7.116;2022-08-01T05:17:24;11.87;;;7.80;;
5333;SDS011;2689;50.954;7.116;2022-08-01T05:19:52;12.73;;;8.77;;
5333;SDS011;2689;50.954;7.116;2022-08-01T05:22:19;13.53;;;8.10;;
5333;SDS011;2689;50.954;7.116;2022-08-01T05:24:46;10.57;;;8.10;;
5333;SDS011;2689;50.954;7.116;2022-08-01T05:27:13;11.93;;;8.83;;
5333;SDS011;2689;50.954;7.116;2022-08-01T05:29:39;9.77;;;8.40;;
5333;SDS011;2689;50.954;7.116;2022-08-01T05:32:06;14.70;;;8.13;;
5333;SDS011;2689;50.954;7.116;2022-08-01T05:34:34;13.47;;;10.30;;
5333;SDS011;2689;50.954;7.116;2022-08-01T05:37:02;11.83;;;9.20;;
5333;SDS011;2689;50.954;7.116;2022-08-01T05:39:29;10.63;;;9.50;;
5333;SDS011;2689;50.954;7.116;2022-08-01T05:41:56;20.93;;;9.97;;
5333;SDS011;2689;50.954;7.116;2022-08-01T05:44:23;10.87;;;9.70;;
5333;SDS011;2689;50.954;7.116;2022-08-01T05:46:50;15.73;;;9.80;;
5333;SDS011;2689;50.954;7.116;2022-08-01T05:49:17;10.37;;;9.17;;
5333;SDS011;2689;50.954;7.116;2022-08-01T05:51:43;13.87;;;9.70;;
5333;SDS011;2689;50.954;7.116;2022-08-01T05:54:13;14.53;;;9.17;;
5333;SDS011;2689;50.954;7.116;2022-08-01T05:56:39;17.23;;;11.17;;
5333;SDS011;2689;50.954;7.116;2022-08-01T05:59:06;12.13;;;9.63;;
5333;SDS011;2689;50.954;7.116;2022-08-01T06:01:33;13.93;;;10.20;;
5333;SDS011;2689;50.954;7.116;2022-08-01T06:04:00;12.53;;;10.70;;
5333;SDS011;2689;50.954;7.116;2022-08-01T06:06:26;14.37;;;12.40;;
5333;SDS011;2689;50.954;7.116;2022-08-01T06:08:53;17.07;;;10.37;;
5333;SDS011;2689;50.954;7.116;2022-08-01T06:11:21;17.07;;;12.60;;
5333;SDS011;2689;50.954;7.116;2022-08-01T06:13:48;15.50;;;13.83;;
5333;SDS011;2689;50.954;7.116;2022-08-01T06:16:15;18.27;;;13.13;;
5333;SDS011;2689;50.954;7.116;2022-08-01T06:18:42;15.47;;;12.37;;
5333;SDS011;2689;50.954;7.116;2022-08-01T06:21:09;16.30;;;12.63;;
5333;SDS011;2689;50.954;7.116;2022-08-01T06:23:35;20.73;;;13.73;;
5333;SDS011;2689;50.954;7.116;2022-08-01T06:26:03;17.97;;;14.70;;
5333;SDS011;2689;50.954;7.116;2022-08-01T06:28:31;15.93;;;12.00;;
5333;SDS011;2689;50.954;7.116;2022-08-01T06:30:57;18.73;;;13.27;;
5333;SDS011;2689;50.954;7.116;2022-08-01T06:33:25;15.17;;;13.33;;
5333;SDS011;2689;50.954;7.116;2022-08-01T06:35:52;19.50;;;13.27;;
5333;SDS011;2689;50.954;7.116;2022-08-01T06:38:18;15.70;;;13.17;;
5333;SDS011;2689;50.954;7.116;2022-08-01T06:40:45;14.00;;;11.90;;
5333;SDS011;2689;50.954;7.116;2022-08-01T06:43:12;15.23;;;13.43;;
5333;SDS011;2689;50.954;7.116;2022-08-01T06:45:41;17.80;;;13.83;;
5333;SDS011;2689;50.954;7.116;2022-08-01T06:48:08;16.90;;;13.70;;
5333;SDS011;2689;50.954;7.116;2022-08-01T06:50:35;17.80;;;12.87;;
5333;SDS011;2689;50.954;7.116;2022-08-01T06:53:02;14.57;;;12.30;;
5333;SDS011;2689;50.954;7.116;2022-08-01T06:55:29;17.80;;;13.30;;
5333;SDS011;2689;50.954;7.116;2022-08-01T06:57:55;16.07;;;12.97;;
5333;SDS011;2689;50.954;7.116;2022-08-01T07:00:22;16.03;;;12.63;;
5333;SDS011;2689;50.954;7.116;2022-08-01T07:02:52;16.00;;;12.03;;
5333;SDS011;2689;50.954;7.116;2022-08-01T07:05:20;17.50;;;12.07;;
5333;SDS011;2689;50.954;7.116;2022-08-01T07:07:47;15.83;;;12.00;;
5333;SDS011;2689;50.954;7.116;2022-08-01T07:10:14;17.13;;;12.47;;
5333;SDS011;2689;50.954;7.116;2022-08-01T07:12:41;17.77;;;12.23;;
5333;SDS011;2689;50.954;7.116;2022-08-01T07:15:09;18.50;;;12.70;;
5333;SDS011;2689;50.954;7.116;2022-08-01T07:17:37;15.90;;;11.07;;
5333;SDS011;2689;50.954;7.116;2022-08-01T07:20:07;14.83;;;13.23;;
5333;SDS011;2689;50.954;7.116;2022-08-01T07:22:36;16.23;;;12.77;;
5333;SDS011;2689;50.954;7.116;2022-08-01T07:25:03;14.80;;;13.30;;
5333;SDS011;2689;50.954;7.116;2022-08-01T07:27:31;16.47;;;12.63;;
5333;SDS011;2689;50.954;7.116;2022-08-01T07:29:59;20.70;;;12.77;;
5333;SDS011;2689;50.954;7.116;2022-08-01T07:32:26;15.50;;;12.90;;
5333;SDS011;2689;50.954;7.116;2022-08-01T07:34:54;14.23;;;11.60;;
5333;SDS011;2689;50.954;7.116;2022-08-01T07:37:22;13.40;;;11.23;;
5333;SDS011;2689;50.954;7.116;2022-08-01T07:39:49;14.17;;;10.53;;
5333;SDS011;2689;50.954;7.116;2022-08-01T07:42:16;12.70;;;11.37;;
5333;SDS011;2689;50.954;7.116;2022-08-01T07:44:43;13.53;;;10.90;;
5333;SDS011;2689;50.954;7.116;2022-08-01T07:47:09;14.23;;;11.00;;
5333;SDS011;2689;50.954;7.116;2022-08-01T07:49:36;13.43;;;12.03;;
5333;SDS011;2689;50.954;7.116;2022-08-01T07:52:04;11.77;;;9.10;;
5333;SDS011;2689;50.954;7.116;2022-08-01T07:54:32;11.33;;;10.13;;
5333;SDS011;2689;50.954;7.116;2022-08-01T07:56:59;10.23;;;9.00;;
5333;SDS011;2689;50.954;7.116;2022-08-01T07:59:25;9.00;;;8.10;;
5333;SDS011;2689;50.954;7.116;2022-08-01T08:01:52;15.83;;;9.60;;
5333;SDS011;2689;50.954;7.116;2022-08-01T08:04:19;11.27;;;9.27;;
5333;SDS011;2689;50.954;7.116;2022-08-01T08:06:46;10.30;;;9.17;;
5333;SDS011;2689;50.954;7.116;2022-08-01T08:09:14;11.20;;;9.40;;
5333;SDS011;2689;50.954;7.116;2022-08-01T08:11:42;9.27;;;8.10;;
5333;SDS011;2689;50.954;7.116;2022-08-01T08:14:10;9.27;;;8.10;;
5333;SDS011;2689;50.954;7.116;2022-08-01T08:16:37;9.03;;;7.47;;
5333;SDS011;2689;50.954;7.116;2022-08-01T08:19:03;9.43;;;7.77;;
5333;SDS011;2689;50.954;7.116;2022-08-01T08:21:30;10.70;;;8.47;;
5333;SDS011;2689;50.954;7.116;2022-08-01T08:23:57;9.97;;;8.53;;
5333;SDS011;2689;50.954;7.116;2022-08-01T08:26:42;9.10;;;8.20;;
5333;SDS011;2689;50.954;7.116;2022-08-01T08:29:09;11.70;;;8.93;;
5333;SDS011;2689;50.954;7.116;2022-08-01T08:31:36;8.70;;;7.87;;
5333;SDS011;2689;50.954;7.116;2022-08-01T08:34:03;10.60;;;8.40;;
5333;SDS011;2689;50.954;7.116;2022-08-01T08:36:29;10.50;;;8.20;;
5333;SDS011;2689;50.954;7.116;2022-08-01T08:38:56;7.93;;;6.60;;
5333;SDS011;2689;50.954;7.116;2022-08-01T08:41:25;7.83;;;6.23;;
5333;SDS011;2689;50.954;7.116;2022-08-01T08:43:53;8.93;;;6.70;;
5333;SDS011;2689;50.954;7.116;2022-08-01T08:46:21;6.43;;;5.83;;
5333;SDS011;2689;50.954;7.116;2022-08-01T08:48:51;10.50;;;7.17;;
5333;SDS011;2689;50.954;7.116;2022-08-01T08:51:18;8.50;;;6.63;;
5333;SDS011;2689;50.954;7.116;2022-08-01T08:53:46;8.87;;;6.30;;
5333;SDS011;2689;50.954;7.116;2022-08-01T08:56:13;8.43;;;6.20;;
5333;SDS011;2689;50.954;7.116;2022-08-01T08:58:41;9.00;;;6.37;;
5333;SDS011;2689;50.954;7.116;2022-08-01T09:01:12;6.63;;;5.57;;
5333;SDS011;2689;50.954;7.116;2022-08-01T09:03:40;7.60;;;6.13;;
5333;SDS011;2689;50.954;7.116;2022-08-01T09:06:06;7.23;;;5.53;;
5333;SDS011;2689;50.954;7.116;2022-08-01T09:08:33;6.93;;;5.50;;
5333;SDS011;2689;50.954;7.116;2022-08-01T09:11:00;8.00;;;5.60;;
5333;SDS011;2689;50.954;7.116;2022-08-01T09:13:27;5.63;;;4.90;;
5333;SDS011;2689;50.954;7.116;2022-08-01T09:15:54;6.83;;;5.40;;
5333;SDS011;2689;50.954;7.116;2022-08-01T09:18:29;7.50;;;5.30;;
5333;SDS011;2689;50.954;7.116;2022-08-01T09:21:11;4.80;;;4.40;;
5333;SDS011;2689;50.954;7.116;2022-08-01T09:23:41;6.70;;;4.90;;
5333;SDS011;2689;50.954;7.116;2022-08-01T09:26:10;5.47;;;4.70;;
5333;SDS011;2689;50.954;7.116;2022-08-01T09:28:38;6.47;;;4.83;;
5333;SDS011;2689;50.954;7.116;2022-08-01T09:31:07;6.60;;;4.20;;
5333;SDS011;2689;50.954;7.116;2022-08-01T09:33:49;5.57;;;4.30;;
5333;SDS011;2689;50.954;7.116;2022-08-01T09:36:17;5.53;;;4.13;;
5333;SDS011;2689;50.954;7.116;2022-08-01T09:38:45;4.90;;;4.27;;
5333;SDS011;2689;50.954;7.116;2022-08-01T09:41:11;4.73;;;3.63;;
5333;SDS011;2689;50.954;7.116;2022-08-01T09:43:38;5.40;;;4.70;;
5333;SDS011;2689;50.954;7.116;2022-08-01T09:46:08;4.03;;;3.63;;
5333;SDS011;2689;50.954;7.116;2022-08-01T09:48:37;8.57;;;4.40;;
5333;SDS011;2689;50.954;7.116;2022-08-01T09:51:06;5.00;;;3.47;;
5333;SDS011;2689;50.954;7.116;2022-08-01T09:53:47;5.80;;;3.80;;
5333;SDS011;2689;50.954;7.116;2022-08-01T09:56:14;5.93;;;3.90;;
5333;SDS011;2689;50.954;7.116;2022-08-01T09:58:51;5.43;;;4.17;;
5333;SDS011;2689;50.954;7.116;2022-08-01T10:01:20;6.57;;;4.10;;
5333;SDS011;2689;50.954;7.116;2022-08-01T10:03:47;5.13;;;3.97;;
5333;SDS011;2689;50.954;7.116;2022-08-01T10:06:30;4.43;;;3.27;;
5333;SDS011;2689;50.954;7.116;2022-08-01T10:08:57;5.47;;;4.40;;
5333;SDS011;2689;50.954;7.116;2022-08-01T10:11:24;5.23;;;3.83;;
5333;SDS011;2689;50.954;7.116;2022-08-01T10:13:51;10.30;;;3.30;;
5333;SDS011;2689;50.954;7.116;2022-08-01T10:16:18;5.30;;;3.93;;
5333;SDS011;2689;50.954;7.116;2022-08-01T10:18:45;5.87;;;3.50;;
5333;SDS011;2689;50.954;7.116;2022-08-01T10:21:13;6.60;;;4.83;;
5333;SDS011;2689;50.954;7.116;2022-08-01T10:23:41;5.87;;;3.77;;
5333;SDS011;2689;50.954;7.116;2022-08-01T10:26:09;5.63;;;4.10;;
5333;SDS011;2689;50.954;7.116;2022-08-01T10:28:38;6.50;;;3.80;;
5333;SDS011;2689;50.954;7.116;2022-08-01T10:31:06;6.87;;;4.03;;
5333;SDS011;2689;50.954;7.116;2022-08-01T10:33:35;4.10;;;3.37;;
5333;SDS011;2689;50.954;7.116;2022-08-01T10:36:04;4.33;;;3.47;;
5333;SDS011;2689;50.954;7.116;2022-08-01T10:38:31;4.60;;;3.90;;
5333;SDS011;2689;50.954;7.116;2022-08-01T10:41:02;7.60;;;3.57;;
5333;SDS011;2689;50.954;7.116;2022-08-01T10:43:29;8.73;;;4.60;;
5333;SDS011;2689;50.954;7.116;2022-08-01T10:45:56;4.30;;;3.90;;
5333;SDS011;2689;50.954;7.116;2022-08-01T10:48:24;5.43;;;3.33;;
5333;SDS011;2689;50.954;7.116;2022-08-01T10:50:57;8.43;;;6.27;;
5333;SDS011;2689;50.954;7.116;2022-08-01T10:53:27;4.20;;;3.43;;
5333;SDS011;2689;50.954;7.116;2022-08-01T10:55:57;5.97;;;4.47;;
5333;SDS011;2689;50.954;7.116;2022-08-01T10:58:27;5.70;;;4.40;;
5333;SDS011;2689;50.954;7.116;2022-08-01T11:01:19;3.83;;;3.23;;
5333;SDS011;2689;50.954;7.116;2022-08-01T11:03:58;6.43;;;3.90;;
5333;SDS011;2689;50.954;7.116;2022-08-01T11:06:35;4.40;;;3.90;;
5333;SDS011;2689;50.954;7.116;2022-08-01T11:12:00;4.67;;;3.43;;
5333;SDS011;2689;50.954;7.116;2022-08-01T11:14:32;4.23;;;3.40;;
5333;SDS011;2689;50.954;7.116;2022-08-01T11:20:09;4.30;;;3.40;;
5333;SDS011;2689;50.954;7.116;2022-08-01T11:26:06;4.27;;;3.07;;
5333;SDS011;2689;50.954;7.116;2022-08-01T11:28:37;3.80;;;3.03;;
5333;SDS011;2689;50.954;7.116;2022-08-01T11:33:58;4.70;;;4.23;;
5333;SDS011;2689;50.954;7.116;2022-08-01T11:36:26;4.10;;;3.37;;
5333;SDS011;2689;50.954;7.116;2022-08-01T11:41:43;6.53;;;3.30;;
5333;SDS011;2689;50.954;7.116;2022-08-01T11:44:11;5.80;;;4.03;;
5333;SDS011;2689;50.954;7.116;2022-08-01T11:46:54;3.77;;;2.80;;
5333;SDS011;2689;50.954;7.116;2022-08-01T11:49:24;3.60;;;2.60;;
5333;SDS011;2689;50.954;7.116;2022-08-01T11:52:00;3.27;;;2.47;;
5333;SDS011;2689;50.954;7.116;2022-08-01T11:54:29;3.23;;;2.93;;
5333;SDS011;2689;50.954;7.116;2022-08-01T11:56:57;3.80;;;2.20;;
5333;SDS011;2689;50.954;7.116;2022-08-01T11:59:25;6.20;;;2.50;;
5333;SDS011;2689;50.954;7.116;2022-08-01T12:01:55;3.03;;;2.73;;
5333;SDS011;2689;50.954;7.116;2022-08-01T12:04:22;4.10;;;2.50;;
5333;SDS011;2689;50.954;7.116;2022-08-01T12:06:49;4.20;;;3.33;;
5333;SDS011;2689;50.954;7.116;2022-08-01T12:09:16;3.07;;;2.77;;
5333;SDS011;2689;50.954;7.116;2022-08-01T12:11:44;5.60;;;3.60;;
5333;SDS011;2689;50.954;7.116;2022-08-01T12:14:15;4.23;;;3.27;;
5333;SDS011;2689;50.954;7.116;2022-08-01T12:16:50;3.20;;;2.87;;
5333;SDS011;2689;50.954;7.116;2022-08-01T12:19:20;4.50;;;2.60;;
5333;SDS011;2689;50.954;7.116;2022-08-01T12:22:10;3.40;;;2.60;;
5333;SDS011;2689;50.954;7.116;2022-08-01T12:24:40;4.60;;;3.77;;
5333;SDS011;2689;50.954;7.116;2022-08-01T12:27:08;5.13;;;2.90;;
5333;SDS011;2689;50.954;7.116;2022-08-01T12:29:37;6.10;;;2.70;;
5333;SDS011;2689;50.954;7.116;2022-08-01T12:32:20;4.07;;;3.67;;
5333;SDS011;2689;50.954;7.116;2022-08-01T12:34:50;7.13;;;4.47;;
5333;SDS011;2689;50.954;7.116;2022-08-01T12:37:18;5.10;;;3.83;;
5333;SDS011;2689;50.954;7.116;2022-08-01T12:39:45;5.80;;;4.77;;
5333;SDS011;2689;50.954;7.116;2022-08-01T12:42:13;3.00;;;2.20;;
5333;SDS011;2689;50.954;7.116;2022-08-01T12:44:40;3.87;;;2.30;;
5333;SDS011;2689;50.954;7.116;2022-08-01T12:47:09;3.00;;;2.20;;
5333;SDS011;2689;50.954;7.116;2022-08-01T12:49:37;2.73;;;2.20;;
5333;SDS011;2689;50.954;7.116;2022-08-01T12:52:05;3.80;;;2.73;;
5333;SDS011;2689;50.954;7.116;2022-08-01T12:57:26;3.63;;;2.20;;
5333;SDS011;2689;50.954;7.116;2022-08-01T12:59:55;4.40;;;2.20;;
5333;SDS011;2689;50.954;7.116;2022-08-01T13:02:32;4.40;;;2.60;;
5333;SDS011;2689;50.954;7.116;2022-08-01T13:05:00;2.70;;;1.97;;
5333;SDS011;2689;50.954;7.116;2022-08-01T13:07:35;3.63;;;2.23;;
5333;SDS011;2689;50.954;7.116;2022-08-01T13:10:03;2.30;;;1.90;;
5333;SDS011;2689;50.954;7.116;2022-08-01T13:12:31;2.40;;;1.90;;
5333;SDS011;2689;50.954;7.116;2022-08-01T13:14:58;3.10;;;1.83;;
5333;SDS011;2689;50.954;7.116;2022-08-01T13:17:31;2.93;;;1.70;;
5333;SDS011;2689;50.954;7.116;2022-08-01T13:19:57;2.07;;;1.53;;
5333;SDS011;2689;50.954;7.116;2022-08-01T13:22:31;2.40;;;1.80;;
5333;SDS011;2689;50.954;7.116;2022-08-01T13:25:10;2.93;;;1.60;;
5333;SDS011;2689;50.954;7.116;2022-08-01T13:27:37;2.10;;;1.33;;
5333;SDS011;2689;50.954;7.116;2022-08-01T13:30:11;2.17;;;1.47;;
5333;SDS011;2689;50.954;7.116;2022-08-01T13:32:39;2.90;;;1.63;;
5333;SDS011;2689;50.954;7.116;2022-08-01T13:35:08;3.13;;;1.37;;
5333;SDS011;2689;50.954;7.116;2022-08-01T13:37:37;2.70;;;1.63;;
5333;SDS011;2689;50.954;7.116;2022-08-01T13:40:06;2.63;;;1.67;;
5333;SDS011;2689;50.954;7.116;2022-08-01T13:42:35;3.20;;;1.47;;
5333;SDS011;2689;50.954;7.116;2022-08-01T13:45:02;2.00;;;1.40;;
5333;SDS011;2689;50.954;7.116;2022-08-01T13:47:32;1.90;;;1.47;;
5333;SDS011;2689;50.954;7.116;2022-08-01T13:49:59;2.23;;;1.40;;
5333;SDS011;2689;50.954;7.116;2022-08-01T13:52:27;1.80;;;1.17;;
5333;SDS011;2689;50.954;7.116;2022-08-01T13:54:54;3.83;;;1.40;;
5333;SDS011;2689;50.954;7.116;2022-08-01T13:57:21;1.73;;;1.07;;
5333;SDS011;2689;50.954;7.116;2022-08-01T13:59:49;2.80;;;1.10;;
5333;SDS011;2689;50.954;7.116;2022-08-01T14:02:16;3.47;;;1.43;;
5333;SDS011;2689;50.954;7.116;2022-08-01T14:04:43;1.83;;;1.20;;
5333;SDS011;2689;50.954;7.116;2022-08-01T14:07:09;2.67;;;1.77;;
5333;SDS011;2689;50.954;7.116;2022-08-01T14:09:37;1.93;;;0.90;;
5333;SDS011;2689;50.954;7.116;2022-08-01T14:12:04;2.63;;;1.50;;
5333;SDS011;2689;50.954;7.116;2022-08-01T14:14:31;3.80;;;1.37;;
5333;SDS011;2689;50.954;7.116;2022-08-01T14:17:00;2.40;;;1.03;;
5333;SDS011;2689;50.954;7.116;2022-08-01T14:19:27;3.73;;;2.30;;
5333;SDS011;2689;50.954;7.116;2022-08-01T14:21:54;2.57;;;1.50;;
5333;SDS011;2689;50.954;7.116;2022-08-01T14:24:21;1.50;;;1.13;;
5333;SDS011;2689;50.954;7.116;2022-08-01T14:26:48;2.00;;;1.37;;
5333;SDS011;2689;50.954;7.116;2022-08-01T14:29:15;3.73;;;1.20;;
5333;SDS011;2689;50.954;7.116;2022-08-01T14:31:42;2.53;;;1.40;;
5333;SDS011;2689;50.954;7.116;2022-08-01T14:34:10;3.57;;;1.53;;
5333;SDS011;2689;50.954;7.116;2022-08-01T14:36:38;1.50;;;1.13;;
5333;SDS011;2689;50.954;7.116;2022-08-01T14:39:04;1.50;;;1.07;;
5333;SDS011;2689;50.954;7.116;2022-08-01T14:41:31;3.30;;;1.40;;
5333;SDS011;2689;50.954;7.116;2022-08-01T14:43:58;4.40;;;2.50;;
5333;SDS011;2689;50.954;7.116;2022-08-01T14:46:26;3.73;;;2.57;;
5333;SDS011;2689;50.954;7.116;2022-08-01T14:48:52;5.67;;;1.40;;
5333;SDS011;2689;50.954;7.116;2022-08-01T14:51:20;2.30;;;2.10;;
5333;SDS011;2689;50.954;7.116;2022-08-01T14:53:47;4.13;;;3.20;;
5333;SDS011;2689;50.954;7.116;2022-08-01T14:56:14;2.63;;;1.53;;
5333;SDS011;2689;50.954;7.116;2022-08-01T14:58:42;3.70;;;1.20;;
5333;SDS011;2689;50.954;7.116;2022-08-01T15:01:08;3.60;;;1.17;;
5333;SDS011;2689;50.954;7.116;2022-08-01T15:03:35;2.80;;;1.20;;
5333;SDS011;2689;50.954;7.116;2022-08-01T15:06:02;6.60;;;1.00;;
5333;SDS011;2689;50.954;7.116;2022-08-01T15:08:32;2.23;;;1.20;;
5333;SDS011;2689;50.954;7.116;2022-08-01T15:10:59;1.87;;;1.27;;
5333;SDS011;2689;50.954;7.116;2022-08-01T15:13:27;2.30;;;1.43;;
5333;SDS011;2689;50.954;7.116;2022-08-01T15:15:53;2.60;;;1.80;;
5333;SDS011;2689;50.954;7.116;2022-08-01T15:18:20;2.90;;;1.53;;
5333;SDS011;2689;50.954;7.116;2022-08-01T15:20:47;3.63;;;1.90;;
5333;SDS011;2689;50.954;7.116;2022-08-01T15:23:14;2.77;;;1.37;;
5333;SDS011;2689;50.954;7.116;2022-08-01T15:25:42;19.13;;;15.60;;
5333;SDS011;2689;50.954;7.116;2022-08-01T15:28:09;1.97;;;1.50;;
5333;SDS011;2689;50.954;7.116;2022-08-01T15:30:36;4.90;;;1.73;;
5333;SDS011;2689;50.954;7.116;2022-08-01T15:33:03;2.43;;;1.50;;
5333;SDS011;2689;50.954;7.116;2022-08-01T15:35:30;3.17;;;1.60;;
5333;SDS011;2689;50.954;7.116;2022-08-01T15:37:56;2.67;;;1.83;;